Time;durP1;ratioP1;P1;durP2;ratioP2;P2;SDS_P1;SDS_P2;PMS_P1;PMS_P2;Temp;Humidity;BMP_temperature;BMP_pressure;BME280_temperature;BME280_humidity;BME280_pressure;Samples;Min_cycle;Max_cycle;Signal;HPM_P1;HPM_P2
2023/01/04 00:02:21;;;;;;;0.20;0.20;;;;;;;4.27;100.00;97401.59;4943870;28;20050;-75
2023/01/04 00:05:07;;;;;;;0.15;0.15;;;;;;;4.28;100.00;97394.47;4946068;28;20395;-75
2023/01/04 00:07:53;;;;;;;0.10;0.10;;;;;;;4.24;100.00;97396.69;4943927;28;20037;-77
2023/01/04 00:10:39;;;;;;;0.20;0.20;;;;;;;4.23;100.00;97400.34;4943984;28;20145;-77
2023/01/04 00:13:25;;;;;;;0.20;0.20;;;;;;;4.31;100.00;97394.09;4945284;28;20186;-77
2023/01/04 00:16:14;;;;;;;0.10;0.10;;;;;;;4.29;100.00;97389.00;4961253;28;20495;-75
2023/01/04 00:18:59;;;;;;;0.20;0.20;;;;;;;4.30;100.00;97376.56;4949401;28;20035;-76
2023/01/04 00:21:45;;;;;;;0.10;0.10;;;;;;;4.30;100.00;97385.34;4947023;28;20573;-75
2023/01/04 00:24:31;;;;;;;0.10;0.10;;;;;;;4.30;100.00;97376.56;4947745;28;20050;-76
2023/01/04 00:27:17;;;;;;;0.10;0.10;;;;;;;4.26;100.00;97370.00;4948565;28;20375;-76
2023/01/04 00:30:03;;;;;;;0.20;0.20;;;;;;;4.31;100.00;97367.63;4948589;28;20386;-76
2023/01/04 00:32:50;;;;;;;0.17;0.17;;;;;;;4.33;100.00;97352.34;4968572;28;20050;-76
2023/01/04 00:35:36;;;;;;;0.20;0.20;;;;;;;4.41;100.00;97346.91;4965372;28;20330;-77
2023/01/04 00:38:22;;;;;;;0.20;0.20;;;;;;;4.41;100.00;97344.28;4966614;28;20077;-75
2023/01/04 00:41:09;;;;;;;0.15;0.15;;;;;;;4.33;100.00;97345.22;4979612;28;20600;-77
2023/01/04 00:43:55;;;;;;;0.20;0.20;;;;;;;4.40;100.00;97338.16;4968131;28;20192;-75
2023/01/04 00:46:42;;;;;;;0.20;0.20;;;;;;;4.30;100.00;97320.94;4968812;28;20041;-77
2023/01/04 00:49:29;;;;;;;0.20;0.20;;;;;;;4.33;100.00;97329.31;4967221;28;20157;-76
2023/01/04 00:52:15;;;;;;;0.10;0.10;;;;;;;4.29;100.00;97333.34;4966665;28;20372;-77
2023/01/04 00:55:01;;;;;;;0.20;0.20;;;;;;;4.24;100.00;97330.44;4966575;28;20471;-77
2023/01/04 00:57:46;;;;;;;0.20;0.20;;;;;;;4.27;100.00;97319.44;4964879;28;20045;-77
2023/01/04 01:00:33;;;;;;;0.10;0.10;;;;;;;4.24;100.00;97314.53;4964123;28;20767;-76
2023/01/04 01:03:19;;;;;;;0.17;0.17;;;;;;;4.26;100.00;97306.41;4978766;28;20066;-76
2023/01/04 01:06:06;;;;;;;0.20;0.20;;;;;;;4.24;100.00;97309.25;4968745;28;20038;-75
2023/01/04 01:08:52;;;;;;;0.20;0.20;;;;;;;4.20;100.00;97294.72;4964710;28;20264;-75
2023/01/04 01:11:39;;;;;;;0.15;0.15;;;;;;;4.16;100.00;97304.06;4965123;28;20046;-76
2023/01/04 01:14:25;;;;;;;0.13;0.13;;;;;;;4.22;100.00;97297.19;4966092;28;20046;-76
2023/01/04 01:17:10;;;;;;;0.20;0.20;;;;;;;4.24;100.00;97281.94;4978990;28;20157;-77
2023/01/04 01:19:56;;;;;;;0.10;0.10;;;;;;;4.19;100.00;97288.59;4969510;28;20069;-77
2023/01/04 01:22:42;;;;;;;0.10;0.10;;;;;;;4.18;100.00;97279.00;4964149;28;20064;-76
2023/01/04 01:25:28;;;;;;;0.10;0.10;;;;;;;4.22;100.00;97286.59;4966089;28;20046;-76
2023/01/04 01:28:14;;;;;;;0.20;0.20;;;;;;;4.22;100.00;97286.59;4965391;28;20038;-76
2023/01/04 01:31:09;;;;;;;0.10;0.10;;;;;;;4.25;100.00;97294.97;4959081;28;20361;-76
2023/01/04 01:33:56;;;;;;;0.20;0.20;;;;;;;4.15;100.00;97276.75;4957051;28;20085;-76
2023/01/04 01:36:42;;;;;;;0.20;0.20;;;;;;;4.12;100.00;97276.28;4946128;28;20050;-75
2023/01/04 01:39:28;;;;;;;0.20;0.20;;;;;;;4.18;100.00;97271.06;4945072;28;20161;-76
2023/01/04 01:42:22;;;;;;;0.20;0.20;;;;;;;4.23;100.00;97269.69;4947372;28;20114;-77
2023/01/04 01:45:32;;;;;;;0.20;0.20;;;;;;;4.18;100.00;97267.59;4947077;28;20459;-76
2023/01/04 01:48:24;;;;;;;0.10;0.10;;;;;;;4.29;100.00;97258.34;4946665;28;20255;-75
2023/01/04 01:51:10;;;;;;;0.10;0.10;;;;;;;4.27;100.00;97253.22;4944998;28;20081;-76
2023/01/04 01:54:05;;;;;;;0.10;0.10;;;;;;;4.31;100.00;97253.66;4945596;28;20499;-75
2023/01/04 01:56:54;;;;;;;0.20;0.20;;;;;;;4.32;100.00;97256.13;4945939;28;20130;-76
2023/01/04 01:59:42;;;;;;;0.15;0.15;;;;;;;4.30;100.00;97259.97;4945537;28;20578;-77
2023/01/04 02:02:28;;;;;;;0.10;0.10;;;;;;;4.36;100.00;97259.22;4975655;28;20497;-76
2023/01/04 02:05:16;;;;;;;0.20;0.20;;;;;;;4.41;100.00;97254.16;4965039;28;20038;-77
2023/01/04 02:08:03;;;;;;;0.20;0.20;;;;;;;4.41;100.00;97260.28;4964090;28;20336;-77
2023/01/04 02:10:50;;;;;;;0.10;0.10;;;;;;;4.36;100.00;97244.16;4967039;28;20204;-76
2023/01/04 02:16:51;;;;;;;0.20;0.20;;;;;;;4.28;100.00;97228.38;4965312;28;20046;-75
2023/01/04 02:19:56;;;;;;;0.20;0.20;;;;;;;4.18;100.00;97217.25;4976147;28;20046;-77
2023/01/04 02:23:11;;;;;;;0.20;0.20;;;;;;;4.19;100.00;97211.78;4974926;28;20041;-75
2023/01/04 02:26:15;;;;;;;0.13;0.13;;;;;;;4.16;100.00;97224.59;4967444;28;20390;-75
2023/01/04 02:29:46;;;;;;;0.20;0.20;;;;;;;4.16;100.00;97200.75;4965411;28;20042;-77
2023/01/04 02:32:50;;;;;;;0.20;0.20;;;;;;;4.14;100.00;97192.19;4964820;28;20050;-75
2023/01/04 02:35:57;;;;;;;0.10;0.10;;;;;;;4.20;100.00;97194.03;4964845;28;20034;-76
2023/01/04 02:39:01;;;;;;;0.10;0.10;;;;;;;4.13;100.00;97175.47;4962298;28;20113;-76
2023/01/04 02:42:14;;;;;;;0.10;0.10;;;;;;;4.11;100.00;97180.13;4965206;28;20038;-76
2023/01/04 02:45:04;;;;;;;0.20;0.20;;;;;;;4.05;100.00;97180.91;4962431;28;20157;-77
2023/01/04 02:50:59;;;;;;;0.20;0.20;;;;;;;4.09;100.00;97168.06;4963514;28;20030;-77
2023/01/04 02:53:45;;;;;;;0.20;0.20;;;;;;;4.03;100.00;97167.00;4952923;28;20427;-77
2023/01/04 02:56:47;;;;;;;0.20;0.20;;;;;;;4.05;100.00;97158.88;4962231;28;20050;-76
2023/01/04 02:59:41;;;;;;;0.20;0.20;;;;;;;4.05;100.00;97145.66;4964233;28;20573;-77
2023/01/04 03:06:21;;;;;;;0.20;0.20;;;;;;;3.95;100.00;97138.00;4964529;28;20577;-77
2023/01/04 03:09:13;;;;;;;0.20;0.20;;;;;;;3.96;100.00;97130.88;4961411;28;20067;-76
2023/01/04 03:15:17;;;;;;;0.20;0.20;;;;;;;4.00;100.00;97124.19;4964079;28;20054;-74
2023/01/04 03:18:23;;;;;;;0.20;0.20;;;;;;;3.96;100.00;97118.44;4963249;28;20049;-77
2023/01/04 03:21:12;;;;;;;0.10;0.10;;;;;;;4.05;100.00;97127.94;4949692;28;20125;-77
2023/01/04 03:36:52;;;;;;;0.20;0.20;;;;;;;4.00;100.00;97095.06;4964910;28;20576;-75
2023/01/04 03:49:56;;;;;;;0.10;0.10;;;;;;;4.02;100.00;97069.19;4964080;28;20050;-77
2023/01/04 03:52:46;;;;;;;0.13;0.13;;;;;;;4.08;100.00;97066.63;4964325;28;21589;-76
2023/01/04 03:55:34;;;;;;;0.10;0.10;;;;;;;4.09;100.00;97060.28;4967654;28;20810;-76
2023/01/04 03:58:21;;;;;;;0.10;0.10;;;;;;;4.06;100.00;97065.19;4970218;28;20424;-77
2023/01/04 04:01:07;;;;;;;0.10;0.10;;;;;;;4.03;100.00;97053.13;4967875;28;20144;-77
2023/01/04 04:10:03;;;;;;;0.10;0.10;;;;;;;4.08;100.00;97056.00;4981715;28;20043;-76
2023/01/04 04:12:48;;;;;;;0.20;0.20;;;;;;;4.09;100.00;97052.34;4951160;28;20057;-77
2023/01/04 04:15:35;;;;;;;0.10;0.10;;;;;;;4.04;100.00;97028.25;4969323;28;20609;-77
2023/01/04 04:18:21;;;;;;;0.10;0.10;;;;;;;4.13;100.00;97045.66;4966878;28;20038;-75
2023/01/04 04:21:07;;;;;;;0.10;0.10;;;;;;;4.19;100.00;97052.81;4967628;28;20064;-77
2023/01/04 04:23:54;;;;;;;0.20;0.20;;;;;;;4.13;100.00;97040.38;4964614;28;20053;-75
2023/01/04 04:26:40;;;;;;;0.20;0.20;;;;;;;4.19;100.00;97041.41;4968533;28;20530;-76
2023/01/04 04:29:27;;;;;;;0.10;0.10;;;;;;;4.25;100.00;97043.28;4965364;28;20314;-77
2023/01/04 04:32:13;;;;;;;0.20;0.20;;;;;;;4.23;100.00;97044.50;4968684;28;20338;-76
2023/01/04 04:34:59;;;;;;;0.20;0.20;;;;;;;4.17;100.00;97028.38;4967004;28;20234;-76
2023/01/04 04:37:44;;;;;;;0.10;0.10;;;;;;;4.17;100.00;97025.72;4967622;28;20340;-77
2023/01/04 04:43:35;;;;;;;0.20;0.20;;;;;;;4.30;100.00;97037.41;4967117;28;20049;-77
2023/01/04 04:46:21;;;;;;;0.10;0.10;;;;;;;4.32;100.00;97030.09;4967443;28;20187;-76
2023/01/04 04:49:08;;;;;;;0.20;0.20;;;;;;;4.38;100.00;97040.72;4965640;28;20046;-77
2023/01/04 04:51:54;;;;;;;0.20;0.20;;;;;;;4.38;100.00;97038.06;4964110;28;20417;-76
2023/01/04 04:54:40;;;;;;;0.20;0.20;;;;;;;4.47;100.00;97034.25;4965121;28;20043;-76
2023/01/04 04:57:26;;;;;;;0.17;0.17;;;;;;;4.39;100.00;97031.75;4967929;28;20093;-76
2023/01/04 05:00:13;;;;;;;0.10;0.10;;;;;;;4.52;100.00;97020.44;4965689;28;20108;-76
2023/01/04 05:03:00;;;;;;;0.20;0.20;;;;;;;4.49;100.00;97028.75;4966586;28;20038;-77
2023/01/04 05:05:46;;;;;;;0.10;0.10;;;;;;;4.50;100.00;97032.22;4965429;28;20153;-76
2023/01/04 05:08:32;;;;;;;0.20;0.20;;;;;;;4.55;100.00;97025.31;4967999;28;20049;-76
2023/01/04 05:14:28;;;;;;;0.10;0.10;;;;;;;4.53;100.00;97008.81;4958331;28;20692;-75
2023/01/04 05:17:14;;;;;;;0.15;0.15;;;;;;;4.52;100.00;96999.22;4968559;28;20046;-76
2023/01/04 05:19:59;;;;;;;0.10;0.10;;;;;;;4.55;100.00;96988.22;4965639;28;20084;-75
2023/01/04 05:22:45;;;;;;;0.15;0.15;;;;;;;4.63;100.00;97019.84;4964902;28;20038;-75
2023/01/04 05:25:31;;;;;;;0.17;0.17;;;;;;;4.69;100.00;97021.72;4965927;28;20038;-76
2023/01/04 05:28:18;;;;;;;0.20;0.20;;;;;;;4.77;100.00;97010.13;4965586;28;20034;-75
2023/01/04 05:31:04;;;;;;;0.20;0.20;;;;;;;4.80;100.00;96996.47;4970389;28;20456;-75
2023/01/04 05:33:50;;;;;;;0.10;0.10;;;;;;;4.70;100.00;96988.06;4944894;28;20507;-75
2023/01/04 05:36:36;;;;;;;0.13;0.13;;;;;;;4.68;100.00;96969.72;4948064;28;20281;-76
2023/01/04 05:39:22;;;;;;;0.15;0.15;;;;;;;4.69;100.00;96984.59;4946486;28;20079;-77
2023/01/04 05:42:26;;;;;;;0.13;0.13;;;;;;;4.72;100.00;96991.34;4948752;28;20249;-76
2023/01/04 05:45:14;;;;;;;0.13;0.13;;;;;;;4.75;100.00;97007.69;4946772;28;20413;-76
2023/01/04 05:48:02;;;;;;;0.10;0.10;;;;;;;4.71;100.00;96979.91;4948681;28;20047;-75
2023/01/04 05:50:48;;;;;;;0.10;0.10;;;;;;;4.70;100.00;96988.88;4947057;28;20042;-76
2023/01/04 05:53:34;;;;;;;0.15;0.15;;;;;;;4.69;100.00;96974.00;4944302;28;20458;-77
2023/01/04 05:56:20;;;;;;;0.10;0.10;;;;;;;4.69;100.00;96979.31;4960520;28;20982;-76
2023/01/04 05:59:06;;;;;;;0.10;0.10;;;;;;;4.72;100.00;96981.53;4947217;28;20058;-75
2023/01/04 06:01:52;;;;;;;0.10;0.10;;;;;;;4.72;100.00;96976.25;4958971;28;20058;-77
2023/01/04 06:04:37;;;;;;;0.13;0.13;;;;;;;4.75;100.00;96969.75;4945814;28;20177;-76
2023/01/04 06:07:23;;;;;;;0.10;0.10;;;;;;;4.78;100.00;96952.59;4965073;28;20108;-74
2023/01/04 06:10:11;;;;;;;0.10;0.10;;;;;;;4.80;100.00;96959.34;4966645;28;20046;-75
2023/01/04 06:12:57;;;;;;;0.15;0.15;;;;;;;4.77;100.00;96957.09;4964717;28;20590;-75
2023/01/04 06:15:43;;;;;;;0.10;0.10;;;;;;;4.82;100.00;96962.59;4965600;28;20137;-76
2023/01/04 06:18:29;;;;;;;0.20;0.20;;;;;;;4.85;100.00;96954.25;4965176;28;20150;-76
2023/01/04 06:21:15;;;;;;;0.10;0.10;;;;;;;4.81;100.00;96939.75;4966270;28;20131;-76
2023/01/04 06:24:01;;;;;;;0.13;0.13;;;;;;;4.83;100.00;96939.56;4965438;28;20253;-77
2023/01/04 06:26:47;;;;;;;0.20;0.20;;;;;;;4.89;100.00;96928.97;4965282;28;20046;-76
2023/01/04 06:29:33;;;;;;;0.20;0.20;;;;;;;4.96;100.00;96902.44;4963835;28;20101;-76
2023/01/04 06:32:19;;;;;;;0.10;0.10;;;;;;;4.95;100.00;96917.56;4949386;28;20089;-76
2023/01/04 06:35:05;;;;;;;0.20;0.20;;;;;;;5.00;100.00;96898.41;4934564;28;20858;-75
2023/01/04 06:37:53;;;;;;;0.20;0.20;;;;;;;5.04;100.00;96912.88;4945621;28;20277;-75
2023/01/04 06:40:39;;;;;;;0.15;0.15;;;;;;;5.06;100.00;96913.50;4944577;28;20051;-76
2023/01/04 06:43:24;;;;;;;0.15;0.15;;;;;;;5.09;100.00;96909.63;4944078;28;20217;-75
2023/01/04 06:46:10;;;;;;;0.10;0.10;;;;;;;5.17;100.00;96899.63;4945296;28;20240;-76
2023/01/04 06:48:57;;;;;;;0.20;0.20;;;;;;;5.14;100.00;96889.44;4944432;28;20532;-76
2023/01/04 06:51:42;;;;;;;0.20;0.20;;;;;;;5.21;100.00;96921.25;4941542;28;20496;-75
2023/01/04 06:54:28;;;;;;;0.20;0.20;;;;;;;5.30;100.00;96923.53;4945411;28;20124;-76
2023/01/04 06:57:17;;;;;;;0.17;0.17;;;;;;;5.16;100.00;96916.56;4946700;28;20042;-76
2023/01/04 07:00:05;;;;;;;0.10;0.10;;;;;;;5.19;100.00;96925.94;4944646;28;20600;-74
2023/01/04 07:02:51;;;;;;;0.10;0.10;;;;;;;5.23;100.00;96917.38;4964412;28;20054;-76
2023/01/04 07:05:37;;;;;;;0.20;0.20;;;;;;;5.28;100.00;96927.38;4965968;28;20073;-76
2023/01/04 07:08:22;;;;;;;0.10;0.10;;;;;;;5.31;100.00;96927.81;4966024;28;20078;-74
2023/01/04 07:11:08;;;;;;;0.10;0.10;;;;;;;5.29;100.00;96956.38;4965580;28;20080;-74
2023/01/04 07:13:54;;;;;;;0.10;0.10;;;;;;;5.24;100.00;96928.81;4962360;28;20077;-74
2023/01/04 07:16:43;;;;;;;0.10;0.10;;;;;;;5.34;100.00;96925.75;4964611;28;20053;-77
2023/01/04 07:19:29;;;;;;;0.15;0.15;;;;;;;5.28;100.00;96917.56;4962913;28;20050;-75
2023/01/04 07:22:15;;;;;;;0.10;0.10;;;;;;;5.33;100.00;96911.66;4965730;28;20046;-76
2023/01/04 07:25:01;;;;;;;0.17;0.17;;;;;;;5.30;100.00;96926.19;4968408;28;20112;-76
2023/01/04 07:27:53;;;;;;;0.20;0.20;;;;;;;5.37;100.00;96917.38;4970946;28;20078;-76
2023/01/04 07:30:39;;;;;;;0.10;0.10;;;;;;;5.27;100.00;96915.94;4967836;28;20050;-76
2023/01/04 07:33:25;;;;;;;0.10;0.10;;;;;;;5.25;100.00;96920.66;4965498;28;20523;-76
2023/01/04 07:36:11;;;;;;;0.10;0.10;;;;;;;5.26;100.00;96916.16;4954280;28;20503;-75
2023/01/04 07:39:00;;;;;;;0.10;0.10;;;;;;;5.35;100.00;96908.81;4952628;28;20320;-74
2023/01/04 07:41:48;;;;;;;0.10;0.10;;;;;;;5.32;100.00;96918.00;4953130;28;20043;-76
2023/01/04 07:44:37;;;;;;;0.20;0.20;;;;;;;5.36;100.00;96897.16;4954064;28;20251;-77
2023/01/04 07:47:23;;;;;;;0.10;0.10;;;;;;;5.42;100.00;96907.78;4952013;28;20047;-77
2023/01/04 07:50:09;;;;;;;0.10;0.10;;;;;;;5.41;100.00;96915.97;4954184;28;20284;-77
2023/01/04 07:52:56;;;;;;;0.10;0.10;;;;;;;5.35;100.00;96925.53;4962964;28;20047;-77
2023/01/04 07:55:41;;;;;;;0.10;0.10;;;;;;;5.43;100.00;96929.84;4952890;28;20679;-76
2023/01/04 07:58:31;;;;;;;0.20;0.20;;;;;;;5.46;100.00;96926.78;4952517;28;20575;-76
2023/01/04 08:01:18;;;;;;;0.10;0.10;;;;;;;5.49;100.00;96908.59;4960174;28;20039;-77
2023/01/04 08:04:05;;;;;;;0.20;0.20;;;;;;;5.47;100.00;96896.56;4971288;28;20090;-75
2023/01/04 08:06:51;;;;;;;0.10;0.10;;;;;;;5.53;100.00;96909.03;4973409;28;20034;-74
2023/01/04 08:09:39;;;;;;;0.20;0.20;;;;;;;5.60;100.00;96904.50;4971357;28;20057;-74
2023/01/04 08:12:25;;;;;;;0.10;0.10;;;;;;;5.50;100.00;96915.53;4970538;28;20458;-74
2023/01/04 08:15:13;;;;;;;0.20;0.20;;;;;;;5.68;100.00;96903.47;4971762;28;20578;-76
2023/01/04 08:17:59;;;;;;;0.20;0.20;;;;;;;5.60;100.00;96931.03;4982869;28;20664;-74
2023/01/04 08:20:45;;;;;;;0.20;0.20;;;;;;;5.69;100.00;96937.81;4970787;28;20501;-74
2023/01/04 08:23:31;;;;;;;0.10;0.10;;;;;;;5.65;100.00;96939.22;4970655;28;20768;-74
2023/01/04 08:26:18;;;;;;;0.20;0.20;;;;;;;5.74;100.00;96927.38;4943531;28;20806;-75
2023/01/04 08:29:05;;;;;;;0.20;0.20;;;;;;;5.74;100.00;96914.09;4983402;28;20121;-75
2023/01/04 08:31:51;;;;;;;0.10;0.10;;;;;;;5.77;100.00;96923.50;4956977;28;20047;-74
2023/01/04 08:34:36;;;;;;;0.15;0.15;;;;;;;5.85;100.00;96905.50;4950437;28;20204;-75
2023/01/04 08:37:22;;;;;;;0.20;0.20;;;;;;;5.83;100.00;96920.81;4948484;28;20039;-74
2023/01/04 08:40:08;;;;;;;0.20;0.20;;;;;;;5.85;100.00;96907.34;4946237;28;20125;-74
2023/01/04 08:42:54;;;;;;;0.20;0.20;;;;;;;5.75;100.00;96912.25;4947036;28;20592;-77
2023/01/04 08:45:41;;;;;;;0.10;0.10;;;;;;;5.82;100.00;96913.88;4945523;28;20673;-77
2023/01/04 08:48:27;;;;;;;0.10;0.10;;;;;;;5.82;100.00;96916.53;4947844;28;20054;-75
2023/01/04 08:51:15;;;;;;;0.20;0.20;;;;;;;5.86;100.00;96917.75;4946720;28;20081;-74
2023/01/04 08:54:01;;;;;;;0.13;0.13;;;;;;;5.84;100.00;96911.03;4944640;28;20408;-74
2023/01/04 08:56:46;;;;;;;0.10;0.10;;;;;;;5.95;100.00;96907.75;4946601;28;20598;-74
2023/01/04 08:59:32;;;;;;;0.17;0.17;;;;;;;6.01;100.00;96906.13;4947000;28;20057;-76
2023/01/04 09:02:25;;;;;;;0.10;0.10;;;;;;;6.02;100.00;96905.09;4949245;28;20042;-75
2023/01/04 09:05:10;;;;;;;0.20;0.20;;;;;;;5.85;100.00;96907.34;4947785;28;20066;-75
2023/01/04 09:07:58;;;;;;;0.20;0.20;;;;;;;6.05;100.00;96912.63;4943713;28;20558;-75
2023/01/04 09:10:44;;;;;;;0.20;0.20;;;;;;;6.02;100.00;96902.44;4944730;28;20523;-74
2023/01/04 09:13:32;;;;;;;0.10;0.10;;;;;;;6.00;100.00;96905.28;4946859;28;20335;-76
2023/01/04 09:16:19;;;;;;;0.17;0.17;;;;;;;6.00;100.00;96902.63;4959959;28;20043;-75
2023/01/04 09:19:05;;;;;;;0.17;0.17;;;;;;;5.90;100.00;96898.72;4946607;28;20065;-76
2023/01/04 09:21:51;;;;;;;0.10;0.10;;;;;;;5.88;100.00;96904.25;4913323;28;20057;-75
2023/01/04 09:24:37;;;;;;;0.20;0.20;;;;;;;5.88;100.00;96909.56;4942934;28;20038;-75
2023/01/04 09:27:23;;;;;;;0.15;0.15;;;;;;;5.98;100.00;96907.31;4947341;28;20470;-74
2023/01/04 09:30:10;;;;;;;0.10;0.10;;;;;;;6.00;100.00;96899.97;4942921;28;20392;-74
2023/01/04 09:32:56;;;;;;;0.20;0.20;;;;;;;6.00;100.00;96883.22;4945762;28;20047;-76
2023/01/04 09:35:42;;;;;;;0.15;0.15;;;;;;;6.08;100.00;96891.78;4940135;28;20101;-77
2023/01/04 09:38:27;;;;;;;0.10;0.10;;;;;;;6.08;100.00;96889.13;4946234;28;20039;-77
2023/01/04 09:41:18;;;;;;;0.20;0.20;;;;;;;6.12;100.00;96897.47;4944550;28;20047;-75
2023/01/04 09:44:20;;;;;;;0.15;0.15;;;;;;;6.17;100.00;96902.19;4945751;28;20065;-76
2023/01/04 09:47:12;;;;;;;0.10;0.10;;;;;;;6.12;100.00;96895.63;4945306;28;20046;-76
2023/01/04 09:50:01;;;;;;;;;;;;;;;6.17;100.00;96894.22;4946223;28;20381;-77
2023/01/04 09:52:55;;;;;;;0.10;0.10;;;;;;;6.22;100.00;96907.66;4944472;28;20399;-76
2023/01/04 09:55:47;;;;;;;0.20;0.20;;;;;;;6.20;100.00;96905.22;4945511;28;20141;-77
2023/01/04 09:58:39;;;;;;;0.10;0.10;;;;;;;6.31;100.00;96880.66;4946600;28;20038;-76
2023/01/04 10:01:37;;;;;;;0.20;0.20;;;;;;;6.41;100.00;96883.69;4954150;28;20058;-76
2023/01/04 10:04:35;;;;;;;0.10;0.10;;;;;;;6.50;100.00;96878.13;4963959;28;20061;-76
2023/01/04 10:07:31;;;;;;;0.10;0.10;;;;;;;6.48;100.00;96872.19;4964490;28;20420;-77
2023/01/04 10:10:25;;;;;;;0.10;0.10;;;;;;;6.49;100.00;96879.16;4961254;28;20054;-77
2023/01/04 10:13:25;;;;;;;0.10;0.10;;;;;;;6.56;100.00;96866.63;4960795;28;20054;-77
2023/01/04 10:16:30;;;;;;;0.10;0.10;;;;;;;6.69;100.00;96878.03;4966753;28;20499;-78
2023/01/04 10:19:37;;;;;;;0.20;0.20;;;;;;;6.75;100.00;96878.19;4964876;28;20573;-77
2023/01/04 10:22:55;;;;;;;0.20;0.20;;;;;;;6.79;100.00;96877.53;4932909;28;20048;-77
2023/01/04 10:25:56;;;;;;;0.10;0.10;;;;;;;6.78;100.00;96862.63;4963852;28;20704;-77
2023/01/04 10:29:10;;;;;;;0.10;0.10;;;;;;;6.80;100.00;96857.06;4963823;28;20038;-78
2023/01/04 10:32:32;;;;;;;0.10;0.10;;;;;;;6.65;100.00;96860.84;4961301;28;20675;-78
2023/01/04 10:35:22;;;;;;;0.10;0.10;;;;;;;6.80;100.00;96846.44;4967746;28;20147;-78
2023/01/04 10:38:16;;;;;;;0.10;0.10;;;;;;;6.91;100.00;96838.56;4964214;28;20076;-76
2023/01/04 10:41:09;;;;;;;0.10;0.10;;;;;;;6.74;100.00;96826.00;4965746;28;20701;-77
2023/01/04 10:44:32;;;;;;;0.10;0.10;;;;;;;6.88;100.00;96844.34;4965217;28;20566;-77
2023/01/04 10:47:48;;;;;;;0.20;0.20;;;;;;;6.87;100.00;96839.22;4960078;28;20049;-78
2023/01/04 10:50:55;;;;;;;0.17;0.17;;;;;;;6.83;100.00;96828.19;4957610;28;20125;-76
2023/01/04 10:53:47;;;;;;;0.20;0.20;;;;;;;6.95;100.00;96841.63;4945766;28;20050;-78
2023/01/04 10:56:44;;;;;;;0.10;0.10;;;;;;;6.82;100.00;96818.59;4946204;28;20557;-77
2023/01/04 10:59:55;;;;;;;0.10;0.10;;;;;;;6.91;100.00;96817.28;4945139;28;20283;-77
2023/01/04 11:03:05;;;;;;;0.10;0.10;;;;;;;7.04;100.00;96827.03;4945748;28;20043;-78
2023/01/04 11:06:19;;;;;;;0.13;0.13;;;;;;;6.88;100.00;96803.63;4945866;28;20803;-77
2023/01/04 11:09:15;;;;;;;0.20;0.20;;;;;;;7.01;100.00;96813.34;4943205;28;20133;-78
2023/01/04 11:12:01;;;;;;;0.20;0.20;;;;;;;6.85;100.00;96815.50;4943855;28;20238;-77
2023/01/04 11:14:51;;;;;;;0.10;0.10;;;;;;;6.89;100.00;96808.72;4946218;28;20046;-78
2023/01/04 11:17:38;;;;;;;0.20;0.20;;;;;;;7.08;100.00;96796.28;4946302;28;20051;-77
2023/01/04 11:20:24;;;;;;;0.10;0.10;;;;;;;7.08;100.00;96790.13;4945614;28;20047;-77
2023/01/04 11:23:15;;;;;;;0.10;0.10;;;;;;;7.24;100.00;96789.59;4913170;28;20051;-78
2023/01/04 11:26:12;;;;;;;;;;;;;;;7.07;100.00;96805.28;4599256;28;10000875;-77
2023/01/04 11:29:05;;;;;;;0.10;0.10;;;;;;;7.13;100.00;96763.69;4942933;28;20397;-78
2023/01/04 11:32:00;;;;;;;0.10;0.10;;;;;;;7.32;100.00;96781.34;4957480;28;20069;-78
2023/01/04 11:34:51;;;;;;;0.10;0.10;;;;;;;7.16;100.00;96768.56;4963803;28;20875;-78
2023/01/04 11:37:40;;;;;;;0.10;0.10;;;;;;;7.18;100.00;96783.31;4963262;28;20363;-78
2023/01/04 11:40:27;;;;;;;0.10;0.10;;;;;;;7.21;100.00;96771.38;4966254;28;20412;-76
2023/01/04 11:43:20;;;;;;;0.15;0.15;;;;;;;7.22;100.00;96749.88;4960535;28;20177;-78
2023/01/04 11:46:23;;;;;;;0.20;0.20;;;;;;;7.32;100.00;96764.56;4976421;28;20260;-76
2023/01/04 11:49:18;;;;;;;0.20;0.20;;;;;;;7.02;100.00;96745.78;4963284;28;20606;-78
2023/01/04 11:52:07;;;;;;;0.10;0.10;;;;;;;6.94;100.00;96749.53;4962766;28;20065;-78
2023/01/04 11:54:53;;;;;;;0.20;0.20;;;;;;;7.09;100.00;96760.66;4962672;28;20053;-77
2023/01/04 11:57:39;;;;;;;0.20;0.20;;;;;;;7.08;100.00;96747.56;4962826;28;20381;-78
2023/01/04 12:00:25;;;;;;;0.20;0.20;;;;;;;7.17;100.00;96775.53;4960840;28;20590;-78
2023/01/04 12:03:18;;;;;;;0.10;0.10;;;;;;;6.92;100.00;96749.72;4941902;28;20051;-77
2023/01/04 12:06:21;;;;;;;0.10;0.10;;;;;;;6.92;100.00;96736.44;4956173;28;20188;-78
2023/01/04 12:09:18;;;;;;;0.10;0.10;;;;;;;6.94;100.00;96741.56;4943505;28;20122;-77
2023/01/04 12:12:04;;;;;;;0.10;0.10;;;;;;;7.01;100.00;96741.50;4958706;28;20074;-78
2023/01/04 12:14:50;;;;;;;0.10;0.10;;;;;;;6.98;100.00;96740.88;4946492;28;20050;-78
2023/01/04 12:17:52;;;;;;;0.13;0.13;;;;;;;6.92;100.00;96722.31;4947123;28;20827;-78
2023/01/04 12:20:38;;;;;;;0.10;0.10;;;;;;;6.85;100.00;96725.06;4942177;28;20042;-76
2023/01/04 12:23:24;;;;;;;0.15;0.15;;;;;;;6.92;100.00;96709.03;4919395;28;20062;-77
2023/01/04 12:26:12;;;;;;;0.10;0.10;;;;;;;7.01;100.00;96717.56;4943978;28;20321;-76
2023/01/04 12:29:23;;;;;;;0.10;0.10;;;;;;;7.13;100.00;96718.44;4947870;28;20047;-77
2023/01/04 12:32:09;;;;;;;0.20;0.20;;;;;;;7.19;100.00;96702.41;4965800;28;20522;-77
2023/01/04 12:34:56;;;;;;;0.17;0.17;;;;;;;7.24;100.00;96701.75;4968206;28;20050;-77
2023/01/04 12:37:48;;;;;;;0.10;0.10;;;;;;;7.28;100.00;96700.28;4948105;28;20117;-76
2023/01/04 12:40:46;;;;;;;0.17;0.17;;;;;;;7.22;100.00;96695.81;4945182;28;20608;-78
2023/01/04 12:43:36;;;;;;;0.10;0.10;;;;;;;7.24;100.00;96694.59;4942926;28;21361;-78
2023/01/04 12:49:43;;;;;;;0.10;0.10;;;;;;;7.25;100.00;96684.75;4946629;28;20051;-78
2023/01/04 12:52:28;;;;;;;0.10;0.10;;;;;;;7.30;100.00;96703.50;4946652;28;20054;-78
2023/01/04 12:55:32;;;;;;;0.20;0.20;;;;;;;7.29;100.00;96701.91;4947268;28;20046;-76
2023/01/04 12:58:27;;;;;;;0.13;0.13;;;;;;;7.33;100.00;96673.81;4941975;28;20752;-77
2023/01/04 13:01:27;;;;;;;0.20;0.20;;;;;;;7.30;100.00;96674.22;4941037;28;20740;-77
2023/01/04 13:04:36;;;;;;;0.10;0.10;;;;;;;7.38;100.00;96683.78;4947041;28;20077;-77
2023/01/04 13:07:29;;;;;;;0.10;0.10;;;;;;;7.34;100.00;96675.44;4958345;28;20039;-77
2023/01/04 13:10:37;;;;;;;0.10;0.10;;;;;;;7.37;100.00;96672.31;4948104;28;20050;-77
2023/01/04 13:13:35;;;;;;;0.20;0.20;;;;;;;7.29;100.00;96666.47;4945871;28;20590;-77
2023/01/04 13:16:38;;;;;;;0.20;0.20;;;;;;;7.32;100.00;96668.72;4947848;28;20569;-77
2023/01/04 13:19:25;;;;;;;0.15;0.15;;;;;;;7.46;100.00;96678.16;4948604;28;20129;-77
2023/01/04 13:22:24;;;;;;;0.10;0.10;;;;;;;7.31;100.00;96662.53;4942470;28;20035;-77
2023/01/04 13:25:13;;;;;;;0.10;0.10;;;;;;;7.45;100.00;96669.34;4942949;28;20513;-77
2023/01/04 13:28:03;;;;;;;0.10;0.10;;;;;;;7.46;100.00;96660.31;4947222;28;20132;-76
2023/01/04 13:30:49;;;;;;;0.20;0.20;;;;;;;7.43;100.00;96658.13;4953218;28;20054;-76
2023/01/04 13:33:35;;;;;;;0.10;0.10;;;;;;;7.39;100.00;96646.31;4976970;28;20279;-76
2023/01/04 13:36:21;;;;;;;0.10;0.10;;;;;;;7.49;100.00;96648.44;4963287;28;20136;-77
2023/01/04 13:39:07;;;;;;;0.10;0.10;;;;;;;7.42;100.00;96656.50;4965934;28;20459;-78
2023/01/04 13:41:54;;;;;;;0.13;0.13;;;;;;;7.43;100.00;96636.81;4968087;28;20046;-77
2023/01/04 13:44:56;;;;;;;0.10;0.10;;;;;;;7.54;100.00;96638.72;4966122;28;20119;-77
2023/01/04 13:47:44;;;;;;;0.20;0.20;;;;;;;7.57;100.00;96652.63;4968062;28;20038;-77
2023/01/04 13:50:35;;;;;;;0.10;0.10;;;;;;;7.59;100.00;96639.91;4965749;28;20566;-77
2023/01/04 13:53:23;;;;;;;0.10;0.10;;;;;;;7.60;100.00;96641.53;4963795;28;20042;-78
2023/01/04 13:56:21;;;;;;;0.17;0.17;;;;;;;7.65;100.00;96647.00;4969021;28;20050;-77
2023/01/04 13:59:08;;;;;;;0.10;0.10;;;;;;;7.65;100.00;96660.31;4964035;28;20668;-78
2023/01/04 14:01:56;;;;;;;0.20;0.20;;;;;;;7.59;100.00;96637.25;4958229;28;20154;-77
2023/01/04 14:04:42;;;;;;;0.10;0.10;;;;;;;7.66;100.00;96643.28;4945189;28;20662;-77
2023/01/04 14:07:28;;;;;;;0.20;0.20;;;;;;;7.60;100.00;96630.88;4943610;28;20042;-77
2023/01/04 14:10:17;;;;;;;0.10;0.10;;;;;;;7.56;100.00;96630.53;4944135;28;20290;-76
2023/01/04 14:13:03;;;;;;;0.20;0.20;;;;;;;7.60;100.00;96625.53;4944802;28;20049;-77
2023/01/04 14:16:24;;;;;;;0.15;0.15;;;;;;;7.62;100.00;96628.78;4946397;28;20042;-77